Time;durP1;ratioP1;P1;durP2;ratioP2;P2;SDS_P1;SDS_P2;PMS_P1;PMS_P2;Temp;Humidity;BMP_temperature;BMP_pressure;BME280_temperature;BME280_humidity;BME280_pressure;Samples;Min_cycle;Max_cycle;Signal;HPM_P1;HPM_P2
2022/01/05 00:02:05;;;;;;;4.50;1.77;;;;;;;3.06;83.15;98125.22;4989684;28;20112;-61
2022/01/05 00:04:30;;;;;;;3.58;1.80;;;;;;;3.03;80.22;98126.19;4987382;28;20209;-77
2022/01/05 00:06:56;;;;;;;3.08;1.52;;;;;;;2.86;80.16;98131.31;4980278;28;20042;-76
2022/01/05 00:09:21;;;;;;;3.13;2.00;;;;;;;2.72;80.58;98135.38;4979558;28;20069;-77
2022/01/05 00:11:46;;;;;;;3.40;2.20;;;;;;;2.61;80.79;98140.22;4977961;28;20034;-77
2022/01/05 00:14:12;;;;;;;2.38;1.80;;;;;;;2.51;81.14;98139.75;4977349;28;20170;-76
2022/01/05 00:16:37;;;;;;;2.75;1.67;;;;;;;2.49;81.62;98145.94;4976832;28;20505;-76
2022/01/05 00:19:03;;;;;;;2.30;1.70;;;;;;;2.42;81.78;98153.16;4979188;28;20453;-75
2022/01/05 00:21:29;;;;;;;4.45;2.45;;;;;;;2.37;81.35;98149.91;4979525;28;20046;-76
2022/01/05 00:23:54;;;;;;;2.55;1.80;;;;;;;2.29;81.70;98147.63;4976895;28;20038;-74
2022/01/05 00:26:19;;;;;;;1.92;1.50;;;;;;;2.25;82.07;98155.63;4978504;28;20045;-75
2022/01/05 00:28:45;;;;;;;3.85;2.00;;;;;;;2.23;82.95;98162.63;4980505;28;20082;-76
2022/01/05 00:31:10;;;;;;;3.13;2.13;;;;;;;2.20;82.73;98155.81;4978115;28;20050;-76
2022/01/05 00:33:35;;;;;;;4.38;2.67;;;;;;;2.20;82.93;98158.41;4983686;28;20101;-78
2022/01/05 00:36:01;;;;;;;4.15;2.28;;;;;;;2.23;83.07;98157.44;4977679;28;20050;-77
2022/01/05 00:38:26;;;;;;;3.38;2.38;;;;;;;2.27;83.02;98159.00;4979363;28;20406;-76
2022/01/05 00:40:51;;;;;;;3.30;2.50;;;;;;;2.27;82.94;98165.03;4979913;28;20040;-78
2022/01/05 00:43:17;;;;;;;4.63;3.00;;;;;;;2.27;83.05;98152.03;4981444;28;20038;-77
2022/01/05 00:45:42;;;;;;;6.75;3.25;;;;;;;2.24;83.32;98162.59;4978337;28;20049;-78
2022/01/05 00:48:07;;;;;;;3.88;2.70;;;;;;;2.27;83.00;98166.81;4978283;28;20454;-78
2022/01/05 00:50:33;;;;;;;4.53;2.80;;;;;;;2.24;83.51;98149.59;4977339;28;20487;-77
2022/01/05 00:53:00;;;;;;;3.90;2.80;;;;;;;2.27;83.75;98154.66;4978180;28;20112;-76
2022/01/05 00:55:29;;;;;;;9.70;3.72;;;;;;;2.29;83.25;98157.16;4977750;28;20494;-77
2022/01/05 00:57:55;;;;;;;5.28;3.03;;;;;;;2.26;83.45;98155.53;4984534;28;20030;-75
2022/01/05 01:00:20;;;;;;;10.48;3.10;;;;;;;2.28;83.20;98158.91;4987571;28;20049;-76
2022/01/05 01:02:46;;;;;;;5.57;3.88;;;;;;;2.31;83.47;98158.81;4988660;28;20045;-77
2022/01/05 01:05:14;;;;;;;4.85;3.88;;;;;;;2.31;83.87;98156.22;4988012;28;20042;-77
2022/01/05 01:07:40;;;;;;;7.10;4.20;;;;;;;2.36;84.19;98153.41;4989117;28;20041;-77
2022/01/05 01:10:05;;;;;;;12.52;5.40;;;;;;;2.39;84.36;98155.88;4989906;28;20046;-78
2022/01/05 01:12:32;;;;;;;9.77;5.18;;;;;;;2.40;83.82;98161.94;4993208;28;20035;-77
2022/01/05 01:14:58;;;;;;;13.68;5.65;;;;;;;2.38;83.82;98156.78;4993110;28;20038;-78
2022/01/05 01:17:23;;;;;;;8.70;5.28;;;;;;;2.39;83.41;98158.50;4993235;28;20096;-77
2022/01/05 01:19:48;;;;;;;8.00;5.53;;;;;;;2.41;83.51;98169.66;4993776;28;20125;-76
2022/01/05 01:22:14;;;;;;;11.95;5.93;;;;;;;2.46;83.51;98172.94;4993285;28;20069;-76
2022/01/05 01:24:39;;;;;;;13.40;8.23;;;;;;;2.48;83.43;98168.47;4991802;28;20058;-76
2022/01/05 01:27:05;;;;;;;7.97;4.75;;;;;;;2.51;83.02;98172.69;4991005;28;20042;-76
2022/01/05 01:29:31;;;;;;;17.85;7.75;;;;;;;2.54;83.50;98172.59;4993031;28;20085;-75
2022/01/05 01:31:56;;;;;;;10.23;5.60;;;;;;;2.57;83.62;98175.91;4996383;28;20086;-76
2022/01/05 01:34:23;;;;;;;11.13;6.45;;;;;;;2.57;83.11;98177.66;4992383;28;20042;-76
2022/01/05 01:36:48;;;;;;;12.00;5.50;;;;;;;2.56;82.82;98181.19;4992999;28;20394;-76
2022/01/05 01:39:13;;;;;;;8.43;6.50;;;;;;;2.61;83.02;98180.97;4992539;28;20030;-77
2022/01/05 01:41:39;;;;;;;11.75;6.18;;;;;;;2.59;81.96;98186.25;4991401;28;20034;-75
2022/01/05 01:44:04;;;;;;;9.90;6.47;;;;;;;2.64;82.36;98179.09;4992159;28;20027;-77
2022/01/05 01:46:30;;;;;;;14.75;5.45;;;;;;;2.67;81.98;98178.13;4990756;28;21204;-76
2022/01/05 01:48:55;;;;;;;34.03;8.05;;;;;;;2.70;81.91;98180.56;4990956;28;20403;-76
2022/01/05 01:51:21;;;;;;;15.13;6.22;;;;;;;2.67;81.89;98173.75;4990380;28;20046;-76
2022/01/05 01:53:46;;;;;;;12.82;6.47;;;;;;;2.66;81.88;98185.09;4992063;28;20129;-76
2022/01/05 01:56:14;;;;;;;13.55;5.97;;;;;;;2.64;81.96;98192.09;4990131;28;20423;-76
2022/01/05 01:58:40;;;;;;;15.90;6.40;;;;;;;2.66;82.20;98192.00;4992392;28;20580;-76
2022/01/05 02:01:05;;;;;;;12.75;7.72;;;;;;;2.64;82.54;98191.25;4963844;28;20050;-76
2022/01/05 02:03:31;;;;;;;12.00;6.90;;;;;;;2.64;82.27;98193.88;4992152;28;20038;-77
2022/01/05 02:05:56;;;;;;;14.93;6.78;;;;;;;2.66;81.60;98192.00;4991311;28;20105;-77
2022/01/05 02:08:22;;;;;;;16.55;6.68;;;;;;;2.67;81.66;98202.38;4990766;28;20030;-77
2022/01/05 02:10:49;;;;;;;12.15;6.25;;;;;;;2.62;80.99;98191.31;4990212;28;20111;-78
2022/01/05 02:13:15;;;;;;;14.50;8.07;;;;;;;2.63;81.90;98200.78;4989318;28;20031;-77
2022/01/05 02:15:41;;;;;;;14.00;6.53;;;;;;;2.56;80.69;98207.19;4989970;28;20084;-76
2022/01/05 02:20:33;;;;;;;10.77;6.22;;;;;;;2.49;81.38;98216.16;4990458;28;20129;-77
2022/01/05 02:22:58;;;;;;;20.73;8.77;;;;;;;2.42;81.15;98209.53;4990931;28;20073;-76
2022/01/05 02:25:25;;;;;;;18.80;9.60;;;;;;;2.31;81.10;98209.94;4990892;28;20034;-77
2022/01/05 02:27:52;;;;;;;14.05;7.00;;;;;;;2.26;81.56;98210.13;4991266;28;20521;-77
2022/01/05 02:30:24;;;;;;;19.30;7.47;;;;;;;2.24;81.87;98211.97;4991312;28;20109;-77
2022/01/05 02:32:50;;;;;;;12.68;6.20;;;;;;;2.19;81.61;98213.06;4991575;28;20565;-76
2022/01/05 02:35:15;;;;;;;18.00;5.80;;;;;;;2.14;81.62;98221.03;4991957;28;20050;-77
2022/01/05 02:37:46;;;;;;;15.27;5.97;;;;;;;2.11;81.78;98226.38;4992753;28;20129;-76
2022/01/05 02:40:14;;;;;;;16.63;6.38;;;;;;;2.09;82.17;98225.56;4991883;28;20069;-77
2022/01/05 02:42:39;;;;;;;14.75;5.82;;;;;;;2.03;81.76;98231.88;4991236;28;20060;-77
2022/01/05 02:45:05;;;;;;;12.98;6.35;;;;;;;2.03;81.56;98239.66;4990599;28;20743;-76
2022/01/05 02:47:31;;;;;;;12.63;5.72;;;;;;;2.01;81.43;98243.25;4990966;28;20458;-76
2022/01/05 02:49:57;;;;;;;14.52;6.40;;;;;;;1.99;82.38;98265.84;4991525;28;20034;-76
2022/01/05 02:52:23;;;;;;;13.20;6.40;;;;;;;1.97;82.17;98267.63;4990879;28;20041;-76
2022/01/05 02:54:48;;;;;;;15.40;4.88;;;;;;;1.90;81.31;98260.09;4990897;28;20038;-76
2022/01/05 02:57:14;;;;;;;15.82;6.47;;;;;;;1.89;81.39;98260.97;4990626;28;20076;-76
2022/01/05 02:59:39;;;;;;;8.40;5.45;;;;;;;1.87;81.53;98262.81;4989387;28;20069;-76
2022/01/05 03:02:05;;;;;;;17.45;6.03;;;;;;;1.84;81.80;98257.72;4989414;28;20045;-76
2022/01/05 03:04:30;;;;;;;17.52;7.50;;;;;;;1.81;81.11;98268.25;4989640;28;20030;-76
2022/01/05 03:06:55;;;;;;;9.63;4.40;;;;;;;1.82;81.41;98275.16;4990218;28;20057;-76
2022/01/05 03:09:21;;;;;;;9.07;4.07;;;;;;;1.82;81.42;98282.06;4990585;28;20035;-76
2022/01/05 03:11:46;;;;;;;16.45;4.60;;;;;;;1.77;80.90;98279.66;4990559;28;20042;-77
2022/01/05 03:14:11;;;;;;;14.10;5.47;;;;;;;1.78;81.23;98281.34;4990570;28;20041;-76
2022/01/05 03:16:37;;;;;;;12.75;5.32;;;;;;;1.77;81.04;98281.41;4989717;28;20061;-77
2022/01/05 03:19:03;;;;;;;13.32;4.00;;;;;;;1.75;81.43;98284.06;4990374;28;20113;-76
2022/01/05 03:21:28;;;;;;;13.70;4.97;;;;;;;1.73;81.10;98279.84;4990903;28;20038;-77
2022/01/05 03:23:54;;;;;;;14.30;5.88;;;;;;;1.71;80.87;98285.94;4988924;28;20029;-76
2022/01/05 03:26:19;;;;;;;15.18;5.82;;;;;;;1.69;80.98;98286.88;4989532;28;20088;-76
2022/01/05 03:28:44;;;;;;;15.00;5.25;;;;;;;1.69;80.99;98284.28;4990439;28;20498;-77
2022/01/05 03:31:10;;;;;;;14.00;4.38;;;;;;;1.71;80.99;98290.28;4989763;28;20034;-76
2022/01/05 03:33:35;;;;;;;12.27;4.28;;;;;;;1.68;80.87;98290.41;4986438;28;20388;-75
2022/01/05 03:36:00;;;;;;;15.48;5.32;;;;;;;1.67;80.31;98296.47;4989943;28;20387;-77
2022/01/05 03:38:28;;;;;;;21.67;5.53;;;;;;;1.65;80.88;98298.28;4990146;28;20034;-77
2022/01/05 03:40:54;;;;;;;18.90;4.93;;;;;;;1.65;80.50;98306.94;4990145;28;20030;-77
2022/01/05 03:43:19;;;;;;;19.13;4.85;;;;;;;1.65;80.05;98308.69;4988707;28;20038;-76
2022/01/05 03:45:44;;;;;;;17.15;6.03;;;;;;;1.60;80.31;98310.59;4989002;28;20093;-76
2022/01/05 03:48:12;;;;;;;16.45;4.70;;;;;;;1.61;80.55;98320.09;4988750;28;20037;-76
2022/01/05 03:50:38;;;;;;;7.47;3.72;;;;;;;1.58;80.19;98313.28;4988923;28;20383;-76
2022/01/05 03:53:05;;;;;;;16.95;4.55;;;;;;;1.58;80.46;98323.66;4989850;28;20033;-76
2022/01/05 03:55:32;;;;;;;18.30;4.75;;;;;;;1.57;80.76;98331.50;4990205;28;20034;-76
2022/01/05 03:57:57;;;;;;;13.55;4.95;;;;;;;1.55;80.86;98330.69;4992139;28;20034;-75
2022/01/05 04:00:24;;;;;;;15.32;4.32;;;;;;;1.53;81.27;98341.16;4991337;28;20042;-76
2022/01/05 04:02:50;;;;;;;18.75;4.28;;;;;;;1.49;81.02;98332.63;4990508;28;20034;-75
2022/01/05 04:05:15;;;;;;;15.93;5.20;;;;;;;1.48;80.82;98336.13;4989378;28;20069;-76
2022/01/05 04:07:41;;;;;;;13.50;4.03;;;;;;;1.45;80.74;98335.38;4990055;28;20026;-75
2022/01/05 04:10:06;;;;;;;15.63;5.10;;;;;;;1.46;80.85;98348.31;4989882;28;20046;-75
2022/01/05 04:12:32;;;;;;;14.93;5.30;;;;;;;1.42;80.64;98359.69;4993185;28;20030;-77
2022/01/05 04:14:57;;;;;;;9.63;3.88;;;;;;;1.44;80.59;98359.66;4991323;28;20073;-77
2022/01/05 04:17:23;;;;;;;8.95;4.13;;;;;;;1.40;80.10;98361.50;4989835;28;20038;-76
2022/01/05 04:19:48;;;;;;;20.17;5.22;;;;;;;1.37;79.75;98369.41;4987923;28;20069;-75
2022/01/05 04:22:13;;;;;;;17.00;4.35;;;;;;;1.38;79.93;98378.03;4991009;28;20073;-76
2022/01/05 04:24:39;;;;;;;15.23;4.20;;;;;;;1.36;79.39;98382.47;4990556;28;20126;-75
2022/01/05 04:27:04;;;;;;;8.02;4.18;;;;;;;1.33;80.31;98377.34;4991414;28;20074;-76
2022/01/05 04:29:30;;;;;;;17.50;4.65;;;;;;;1.33;78.96;98380.81;4997304;28;20030;-75
2022/01/05 04:31:55;;;;;;;12.57;3.33;;;;;;;1.31;79.22;98380.03;4993321;28;20141;-75
2022/01/05 04:34:21;;;;;;;11.43;4.63;;;;;;;1.28;79.50;98374.94;4989317;28;20411;-77
2022/01/05 04:36:46;;;;;;;20.73;4.32;;;;;;;1.29;79.24;98389.59;4988358;28;20034;-76
2022/01/05 04:39:12;;;;;;;21.73;4.65;;;;;;;1.26;79.17;98387.97;4989668;28;20150;-77
2022/01/05 04:41:37;;;;;;;12.55;3.90;;;;;;;1.25;78.78;98388.00;4991063;28;20089;-77
2022/01/05 04:44:02;;;;;;;20.08;4.03;;;;;;;1.25;78.85;98396.63;4990891;28;20042;-76
2022/01/05 04:46:28;;;;;;;12.38;4.25;;;;;;;1.25;79.02;98398.38;4993293;28;20042;-76
2022/01/05 04:48:53;;;;;;;11.40;3.90;;;;;;;1.23;79.16;98402.78;4993451;28;20106;-77
2022/01/05 04:51:18;;;;;;;14.63;5.80;;;;;;;1.20;78.69;98400.28;4992087;28;20049;-77
2022/01/05 04:53:44;;;;;;;21.15;4.10;;;;;;;1.18;79.11;98400.34;4993736;28;20035;-77
2022/01/05 04:56:09;;;;;;;15.40;5.18;;;;;;;1.16;78.71;98396.13;4995335;28;20038;-76
2022/01/05 04:58:34;;;;;;;10.68;3.95;;;;;;;1.13;79.00;98406.56;5000191;28;20096;-76
2022/01/05 05:01:00;;;;;;;10.27;3.65;;;;;;;1.10;79.25;98404.09;4999448;28;20087;-76
2022/01/05 05:03:25;;;;;;;17.65;4.70;;;;;;;1.09;79.05;98408.44;5000887;28;20107;-76
2022/01/05 05:05:50;;;;;;;16.00;3.85;;;;;;;1.08;79.49;98411.91;4999775;28;20045;-77
2022/01/05 05:08:16;;;;;;;16.27;4.43;;;;;;;1.06;79.12;98417.19;5002471;28;20093;-77
2022/01/05 05:10:41;;;;;;;8.35;3.85;;;;;;;1.05;79.31;98414.63;5000201;28;20146;-76
2022/01/05 05:13:11;;;;;;;17.70;4.03;;;;;;;1.00;79.41;98414.78;5002723;28;20515;-77
2022/01/05 05:15:37;;;;;;;10.63;3.47;;;;;;;0.99;79.64;98420.03;5002611;28;20498;-77
2022/01/05 05:18:03;;;;;;;8.88;4.18;;;;;;;0.98;79.51;98419.16;5002926;28;20034;-76
2022/01/05 05:20:28;;;;;;;12.73;4.55;;;;;;;0.99;79.14;98423.47;5004299;28;20065;-76
2022/01/05 05:22:54;;;;;;;15.10;3.67;;;;;;;1.01;79.74;98428.59;5001772;28;20038;-76
2022/01/05 05:25:19;;;;;;;10.45;4.43;;;;;;;1.03;79.57;98429.38;4995369;28;20092;-76
2022/01/05 05:27:44;;;;;;;21.92;4.32;;;;;;;1.02;79.12;98430.31;4992838;28;20034;-76
2022/01/05 05:30:10;;;;;;;11.73;4.07;;;;;;;1.03;78.67;98426.78;4993277;28;20042;-76
2022/01/05 05:32:36;;;;;;;13.63;5.20;;;;;;;1.07;79.16;98441.38;4995514;28;20104;-77
2022/01/05 05:35:01;;;;;;;14.82;4.13;;;;;;;1.09;79.54;98437.00;4992491;28;20491;-77
2022/01/05 05:37:26;;;;;;;10.10;3.63;;;;;;;1.09;78.80;98443.94;4990657;28;20042;-77
2022/01/05 05:39:52;;;;;;;19.58;5.28;;;;;;;1.10;78.55;98443.03;4990935;28;20068;-77
2022/01/05 05:42:17;;;;;;;11.57;3.85;;;;;;;1.10;79.03;98443.03;4992374;28;20045;-77
2022/01/05 05:44:42;;;;;;;22.20;6.72;;;;;;;1.13;79.11;98432.53;4990661;28;20088;-76
2022/01/05 05:47:08;;;;;;;12.23;4.20;;;;;;;1.16;78.98;98432.47;4992255;28;20403;-77
2022/01/05 05:49:33;;;;;;;21.58;5.55;;;;;;;1.18;78.94;98435.81;4992942;28;20507;-78
2022/01/05 05:51:59;;;;;;;20.70;4.93;;;;;;;1.19;78.95;98432.34;4992096;28;20038;-76
2022/01/05 05:54:24;;;;;;;16.08;4.80;;;;;;;1.14;78.29;98429.91;4991305;28;20034;-76
2022/01/05 05:56:49;;;;;;;14.18;4.40;;;;;;;1.12;78.90;98436.88;4990814;28;20041;-77
2022/01/05 05:59:15;;;;;;;14.32;4.65;;;;;;;1.14;78.99;98434.25;4992111;28;20502;-76
2022/01/05 06:01:40;;;;;;;12.38;3.60;;;;;;;1.13;78.85;98445.50;4988151;28;20520;-77
2022/01/05 06:04:05;;;;;;;16.15;4.40;;;;;;;1.13;79.06;98445.50;4992577;28;20120;-76
2022/01/05 06:06:31;;;;;;;17.35;5.32;;;;;;;1.15;78.93;98446.31;4990088;28;20041;-76
2022/01/05 06:08:56;;;;;;;21.42;6.18;;;;;;;1.11;78.30;98440.38;4991705;28;20044;-75
2022/01/05 06:11:22;;;;;;;14.63;5.35;;;;;;;1.14;78.69;98448.06;4990145;28;20061;-76
2022/01/05 06:13:47;;;;;;;27.50;6.20;;;;;;;1.15;78.82;98446.31;4991782;28;20403;-76
2022/01/05 06:16:13;;;;;;;17.92;4.65;;;;;;;1.17;78.82;98444.53;4991431;28;20046;-76
2022/01/05 06:18:38;;;;;;;20.13;7.30;;;;;;;1.19;78.48;98447.91;4988818;28;20088;-76
2022/01/05 06:21:04;;;;;;;17.77;6.35;;;;;;;1.24;78.60;98451.22;4992452;28;20034;-76
2022/01/05 06:23:29;;;;;;;22.83;5.70;;;;;;;1.25;78.64;98448.53;4992095;28;20058;-75
2022/01/05 06:25:54;;;;;;;21.67;6.32;;;;;;;1.27;78.08;98445.91;4991030;28;20066;-75
2022/01/05 06:28:20;;;;;;;14.38;6.13;;;;;;;1.26;78.29;98460.66;4992383;28;20045;-76
2022/01/05 06:30:45;;;;;;;16.05;5.97;;;;;;;1.25;78.74;98471.91;4992968;28;20042;-77
2022/01/05 06:33:10;;;;;;;23.02;5.63;;;;;;;1.29;78.56;98470.09;4993625;28;20038;-76
2022/01/05 06:35:36;;;;;;;27.55;6.35;;;;;;;1.28;79.30;98461.44;4991827;28;20121;-76
2022/01/05 06:38:02;;;;;;;24.63;6.18;;;;;;;1.27;78.89;98466.69;4991306;28;20038;-76
2022/01/05 06:40:27;;;;;;;22.20;6.38;;;;;;;1.25;78.70;98461.53;4991681;28;20038;-77
2022/01/05 06:42:52;;;;;;;20.77;6.38;;;;;;;1.24;79.36;98474.56;4991504;28;20044;-75
2022/01/05 06:45:18;;;;;;;16.33;5.90;;;;;;;1.22;78.54;98477.22;4990640;28;20477;-76
2022/01/05 06:47:43;;;;;;;18.13;5.28;;;;;;;1.20;78.78;98475.56;4991303;28;20795;-77
2022/01/05 06:50:10;;;;;;;29.25;6.30;;;;;;;1.19;78.52;98490.28;4991346;28;20375;-77
2022/01/05 06:52:36;;;;;;;20.38;7.63;;;;;;;1.17;79.20;98492.09;4990863;28;20045;-76
2022/01/05 06:55:03;;;;;;;23.88;5.72;;;;;;;1.16;78.80;98492.16;4990164;28;20082;-76
2022/01/05 06:57:28;;;;;;;20.02;5.90;;;;;;;1.16;78.93;98497.34;4990389;28;20414;-76
2022/01/05 06:59:53;;;;;;;16.08;5.97;;;;;;;1.21;79.09;98495.44;4990895;28;20034;-76
2022/01/05 07:02:19;;;;;;;15.27;6.40;;;;;;;1.26;78.91;98506.53;4990730;28;20041;-76
2022/01/05 07:04:44;;;;;;;18.55;6.43;;;;;;;1.23;79.18;98511.78;4972623;28;20203;-75
2022/01/05 07:07:10;;;;;;;17.65;5.97;;;;;;;1.25;79.19;98512.59;4990410;28;20069;-76
2022/01/05 07:09:35;;;;;;;26.38;7.18;;;;;;;1.27;78.98;98511.66;4994980;28;20383;-76
2022/01/05 07:12:00;;;;;;;15.60;6.35;;;;;;;1.28;79.44;98509.94;4978021;28;20034;-75
2022/01/05 07:14:26;;;;;;;18.10;8.63;;;;;;;1.35;79.52;98506.22;4997844;28;20101;-75
2022/01/05 07:16:51;;;;;;;25.75;6.43;;;;;;;1.42;78.41;98527.63;4995717;28;20030;-77
2022/01/05 07:19:17;;;;;;;18.15;5.63;;;;;;;1.47;79.26;98526.59;4998554;28;20045;-76
2022/01/05 07:21:44;;;;;;;15.88;5.30;;;;;;;1.50;78.59;98539.50;4995044;28;20081;-76
2022/01/05 07:24:12;;;;;;;16.73;6.15;;;;;;;1.54;77.99;98541.97;4990812;28;20038;-76
2022/01/05 07:26:39;;;;;;;20.67;5.38;;;;;;;1.54;78.15;98541.97;4990077;28;20398;-76
2022/01/05 07:29:05;;;;;;;16.52;5.95;;;;;;;1.56;78.29;98543.63;4991251;28;20038;-76
2022/01/05 07:31:30;;;;;;;16.25;6.65;;;;;;;1.55;78.10;98533.28;4990513;28;20038;-76
2022/01/05 07:33:55;;;;;;;15.13;6.32;;;;;;;1.56;77.98;98542.78;4990402;28;20088;-76
2022/01/05 07:36:21;;;;;;;19.83;6.47;;;;;;;1.59;78.58;98540.91;4990108;28;20042;-76
2022/01/05 07:38:46;;;;;;;22.23;6.63;;;;;;;1.61;78.43;98546.06;4989806;28;20088;-76
2022/01/05 07:41:11;;;;;;;16.00;5.38;;;;;;;1.63;77.81;98550.31;4989481;28;20054;-76
2022/01/05 07:43:37;;;;;;;21.42;7.05;;;;;;;1.67;78.24;98549.34;4988512;28;20069;-76
2022/01/05 07:46:02;;;;;;;12.85;5.60;;;;;;;1.68;77.61;98551.03;4988693;28;20046;-77
2022/01/05 07:48:28;;;;;;;22.00;5.85;;;;;;;1.71;78.10;98548.31;4989062;28;20044;-75
2022/01/05 07:50:54;;;;;;;13.68;6.78;;;;;;;1.74;78.03;98557.75;4989578;28;20031;-76
2022/01/05 07:53:20;;;;;;;18.30;5.07;;;;;;;1.80;77.61;98564.50;4992784;28;20165;-77
2022/01/05 07:55:45;;;;;;;18.45;5.38;;;;;;;1.81;77.26;98554.06;4997359;28;20053;-77
2022/01/05 07:58:11;;;;;;;16.77;5.72;;;;;;;1.80;77.46;98562.75;4995464;28;20089;-77
2022/01/05 08:00:36;;;;;;;16.40;5.95;;;;;;;1.78;77.06;98561.97;4973862;28;20050;-76
2022/01/05 08:03:02;;;;;;;20.33;5.43;;;;;;;1.81;76.79;98563.59;4990309;28;20506;-76
2022/01/05 08:05:27;;;;;;;12.32;5.35;;;;;;;1.80;77.05;98575.75;4987985;28;20041;-76
2022/01/05 08:07:52;;;;;;;10.85;5.15;;;;;;;1.83;76.99;98577.41;4991597;28;20038;-75
2022/01/05 08:10:18;;;;;;;14.07;5.82;;;;;;;1.87;77.14;98577.25;4992224;28;20041;-77
2022/01/05 08:12:43;;;;;;;17.27;5.57;;;;;;;1.93;77.24;98582.22;4988821;28;20104;-75
2022/01/05 08:15:11;;;;;;;13.85;4.57;;;;;;;1.92;76.30;98584.88;4989357;28;20760;-76
2022/01/05 08:17:38;;;;;;;18.73;5.55;;;;;;;1.95;76.05;98589.13;4991113;28;20130;-76
2022/01/05 08:20:06;;;;;;;17.92;5.82;;;;;;;1.96;76.01;98586.47;4989880;28;20049;-77
2022/01/05 08:22:32;;;;;;;13.63;6.03;;;;;;;2.05;76.56;98593.13;4991919;28;20046;-75
2022/01/05 08:24:57;;;;;;;15.27;4.57;;;;;;;2.07;75.82;98599.13;4996358;28;20037;-75
2022/01/05 08:27:22;;;;;;;18.73;6.43;;;;;;;2.07;75.59;98589.56;4991361;28;20072;-77
2022/01/05 08:29:48;;;;;;;19.17;5.78;;;;;;;2.11;75.72;98601.53;4972162;28;20046;-77
2022/01/05 08:32:14;;;;;;;12.55;4.78;;;;;;;2.07;75.28;98583.53;4974981;28;20086;-76
2022/01/05 08:34:40;;;;;;;6.70;3.95;;;;;;;2.08;74.90;98595.59;4977795;28;20550;-76
2022/01/05 08:37:05;;;;;;;15.00;5.13;;;;;;;2.10;75.15;98606.81;4976828;28;20118;-77
2022/01/05 08:39:31;;;;;;;18.77;5.47;;;;;;;2.13;75.08;98604.94;4978310;28;20042;-76
2022/01/05 08:41:56;;;;;;;8.77;4.35;;;;;;;2.17;75.22;98607.44;4977502;28;20403;-75
2022/01/05 08:44:21;;;;;;;14.48;5.82;;;;;;;2.20;74.87;98610.78;4984059;28;20537;-76
2022/01/05 08:46:47;;;;;;;17.13;4.90;;;;;;;2.26;75.02;98610.56;4988941;28;20050;-76
2022/01/05 08:49:12;;;;;;;19.33;4.95;;;;;;;2.29;74.85;98613.09;4989046;28;20042;-76
2022/01/05 08:51:38;;;;;;;14.40;4.78;;;;;;;2.30;74.71;98616.53;4989386;28;20092;-75
2022/01/05 08:54:05;;;;;;;16.35;5.13;;;;;;;2.34;74.52;98629.38;4988715;28;20049;-75
2022/01/05 08:56:31;;;;;;;6.90;3.92;;;;;;;2.36;74.67;98631.91;4976014;28;20133;-75
2022/01/05 08:58:56;;;;;;;14.60;4.53;;;;;;;2.39;74.49;98637.03;4981599;28;20110;-76
2022/01/05 09:01:23;;;;;;;13.80;4.05;;;;;;;2.39;74.57;98637.03;4980714;28;20046;-76
2022/01/05 09:03:49;;;;;;;18.70;5.80;;;;;;;2.45;75.26;98654.16;4983900;28;20043;-76
2022/01/05 09:06:14;;;;;;;13.68;5.68;;;;;;;3.73;86.82;98645.91;4973898;28;20604;-63
2022/01/05 09:08:39;;;;;;;10.93;4.53;;;;;;;4.21;75.60;98642.22;4975083;28;20212;-63
2022/01/05 09:11:08;;;;;;;12.52;4.95;;;;;;;4.63;71.75;98648.31;4982324;28;20591;-60
2022/01/05 09:13:33;;;;;;;12.05;4.53;;;;;;;4.77;69.68;98642.47;4973487;28;20039;-62
2022/01/05 09:15:59;;;;;;;15.93;5.75;;;;;;;4.79;67.55;98638.88;4963208;28;20126;-61
2022/01/05 09:18:24;;;;;;;11.65;3.67;;;;;;;4.94;67.94;98645.16;4964956;28;20510;-63
2022/01/05 09:20:49;;;;;;;14.77;6.95;;;;;;;4.79;66.40;98646.69;4964861;28;20050;-60
2022/01/05 09:23:15;;;;;;;14.73;4.57;;;;;;;4.72;66.37;98647.88;4964507;28;20070;-77
2022/01/05 09:25:40;;;;;;;9.25;3.78;;;;;;;4.11;68.06;98645.25;4964509;28;20582;-77
2022/01/05 09:28:07;;;;;;;20.25;5.63;;;;;;;3.68;69.63;98639.19;4964695;28;20101;-76
2022/01/05 09:30:32;;;;;;;20.23;5.90;;;;;;;3.50;70.28;98640.78;4967772;28;20554;-76
2022/01/05 09:32:58;;;;;;;15.88;4.88;;;;;;;3.44;71.20;98639.22;4968613;28;20097;-76
2022/01/05 09:35:25;;;;;;;15.02;4.20;;;;;;;3.34;71.28;98637.91;4967740;28;20101;-76
2022/01/05 09:37:55;;;;;;;10.70;4.05;;;;;;;3.33;71.82;98638.81;4967823;28;20054;-76
2022/01/05 09:43:07;;;;;;;10.70;4.47;;;;;;;3.43;71.11;98653.19;4983369;28;20089;-75
2022/01/05 09:45:35;;;;;;;14.07;6.65;;;;;;;3.34;71.39;98648.31;4984868;28;20039;-75
2022/01/05 09:48:27;;;;;;;13.82;4.35;;;;;;;3.25;72.12;98664.28;4974137;28;20038;-76
2022/01/05 09:51:00;;;;;;;16.25;5.50;;;;;;;3.17;71.97;98660.22;4987380;28;20072;-77
2022/01/05 09:53:26;;;;;;;21.20;7.07;;;;;;;3.16;72.64;98670.69;4991583;28;20514;-76
2022/01/05 09:55:52;;;;;;;10.02;4.00;;;;;;;3.18;72.43;98679.31;4988698;28;20084;-76
2022/01/05 09:58:22;;;;;;;12.10;4.05;;;;;;;3.22;72.64;98680.88;4993676;28;20038;-78
2022/01/05 10:00:49;;;;;;;11.88;4.15;;;;;;;3.22;72.96;98689.56;4993041;28;20038;-76
2022/01/05 10:03:15;;;;;;;8.95;3.28;;;;;;;3.25;72.40;98686.00;4992100;28;20141;-76
2022/01/05 10:05:43;;;;;;;17.35;4.75;;;;;;;3.20;72.67;98687.91;4992946;28;20117;-77
2022/01/05 10:08:09;;;;;;;16.70;5.30;;;;;;;3.16;72.98;98681.97;4975587;28;20038;-76
2022/01/05 10:10:34;;;;;;;12.32;4.35;;;;;;;3.17;73.25;98685.41;4991860;28;20062;-76
2022/01/05 10:13:00;;;;;;;12.15;5.28;;;;;;;3.15;73.38;98701.09;4991558;28;20120;-76
2022/01/05 10:15:26;;;;;;;12.80;4.05;;;;;;;3.13;73.67;98697.72;4991051;28;20038;-76
2022/01/05 10:18:18;;;;;;;12.93;3.92;;;;;;;3.13;73.41;98699.47;4991447;28;20038;-76
2022/01/05 10:21:05;;;;;;;19.35;6.35;;;;;;;3.10;73.10;98709.97;4990600;28;20041;-76
2022/01/05 10:23:38;;;;;;;14.43;4.70;;;;;;;3.13;73.54;98707.28;4989394;28;20046;-76
2022/01/05 10:26:23;;;;;;;15.85;4.95;;;;;;;3.13;73.91;98710.72;4971858;28;20042;-77
2022/01/05 10:28:50;;;;;;;18.70;6.30;;;;;;;3.17;74.03;98712.28;4970797;28;20046;-77
2022/01/05 10:31:18;;;;;;;18.33;5.63;;;;;;;3.20;73.89;98704.41;4973449;28;20125;-77
2022/01/05 10:33:44;;;;;;;9.65;4.47;;;;;;;3.22;74.25;98713.00;4975279;28;20482;-77
2022/01/05 10:36:09;;;;;;;11.73;5.45;;;;;;;3.21;74.81;98710.44;4976158;28;20046;-76
2022/01/05 10:38:35;;;;;;;11.07;4.63;;;;;;;3.26;74.34;98718.94;4971851;28;20030;-77
2022/01/05 10:41:21;;;;;;;26.00;6.00;;;;;;;3.29;74.29;98715.38;4972571;28;20050;-76
2022/01/05 10:44:06;;;;;;;18.08;5.25;;;;;;;3.27;74.29;98709.34;4971527;28;20039;-76
2022/01/05 10:46:37;;;;;;;18.27;4.32;;;;;;;3.30;74.70;98712.72;4970942;28;20118;-76
2022/01/05 10:49:04;;;;;;;16.15;5.07;;;;;;;3.31;74.33;98724.81;4973609;28;20061;-76
2022/01/05 10:51:31;;;;;;;14.38;4.65;;;;;;;3.32;74.29;98725.66;4973565;28;20035;-75
2022/01/05 10:54:19;;;;;;;17.80;5.35;;;;;;;3.35;74.20;98738.59;4954696;28;20039;-77
2022/01/05 10:56:45;;;;;;;13.88;4.53;;;;;;;3.35;74.55;98739.44;4970729;28;20041;-76
2022/01/05 10:59:14;;;;;;;14.30;4.60;;;;;;;3.45;74.39;98742.56;4972274;28;20168;-77
2022/01/05 11:01:41;;;;;;;26.75;7.00;;;;;;;3.58;74.41;98746.41;4970931;28;20395;-77
2022/01/05 11:04:15;;;;;;;10.57;4.30;;;;;;;3.70;74.56;98739.03;4972694;28;20047;-76
2022/01/05 11:07:03;;;;;;;37.38;6.90;;;;;;;3.73;73.81;98751.94;4971798;28;20163;-77
2022/01/05 11:09:30;;;;;;;12.95;4.90;;;;;;;3.72;73.18;98765.91;4972994;28;20602;-75
2022/01/05 11:11:56;;;;;;;15.10;4.97;;;;;;;3.77;73.95;98769.16;4972697;28;20078;-77
2022/01/05 11:14:34;;;;;;;17.55;4.72;;;;;;;3.79;73.40;98762.13;4974142;28;20423;-78
2022/01/05 11:17:03;;;;;;;8.32;4.90;;;;;;;3.76;73.37;98764.84;4973158;28;20039;-76
2022/01/05 11:19:33;;;;;;;15.00;5.55;;;;;;;3.76;73.17;98757.88;4970536;28;20070;-77
2022/01/05 11:22:03;;;;;;;18.85;5.82;;;;;;;3.79;73.05;98760.38;4969902;28;20031;-76
2022/01/05 11:24:32;;;;;;;16.80;5.68;;;;;;;3.75;73.24;98763.16;4970843;28;20117;-77
2022/01/05 11:26:58;;;;;;;12.85;6.18;;;;;;;3.73;73.75;98755.38;4968957;28;20499;-76
2022/01/05 11:29:24;;;;;;;13.52;4.05;;;;;;;3.71;73.67;98766.78;4969325;28;20041;-77
2022/01/05 11:31:50;;;;;;;15.27;5.57;;;;;;;3.67;73.95;98766.06;4970354;28;20110;-77
2022/01/05 11:34:15;;;;;;;17.02;4.82;;;;;;;3.69;73.61;98768.59;4969375;28;20038;-78
2022/01/05 11:36:42;;;;;;;15.65;5.65;;;;;;;3.69;74.15;98779.84;4986100;28;20041;-76